Time;durP1;ratioP1;P1;durP2;ratioP2;P2;SDS_P1;SDS_P2;PMS_P1;PMS_P2;Temp;Humidity;BMP_temperature;BMP_pressure;BME280_temperature;BME280_humidity;BME280_pressure;Samples;Min_cycle;Max_cycle;Signal;HPM_P1;HPM_P2
2020/12/30 00:01:55;;;;;;;4.75;2.53;;;3.80;92.80;;;;;;5094932;28;20032;-70
2020/12/30 00:04:21;;;;;;;4.53;2.45;;;3.90;92.80;;;;;;5094749;28;20060;-70
2020/12/30 00:06:47;;;;;;;6.10;3.03;;;3.80;92.90;;;;;;5094797;28;20047;-71
2020/12/30 00:09:12;;;;;;;6.40;3.13;;;3.70;92.80;;;;;;5094873;28;20454;-70
2020/12/30 00:11:38;;;;;;;4.97;2.67;;;3.70;92.80;;;;;;5094305;28;20047;-71
2020/12/30 00:14:04;;;;;;;5.65;2.72;;;3.70;92.80;;;;;;5094238;28;20039;-71
2020/12/30 00:16:31;;;;;;;4.63;2.40;;;3.60;92.80;;;;;;5094132;28;20051;-70
2020/12/30 00:18:57;;;;;;;4.15;2.22;;;3.60;92.90;;;;;;5093540;28;20040;-71
2020/12/30 00:21:23;;;;;;;4.72;2.35;;;3.50;92.90;;;;;;5094254;28;20040;-71
2020/12/30 00:23:48;;;;;;;5.32;2.50;;;3.50;92.90;;;;;;5094032;28;20050;-70
2020/12/30 00:26:18;;;;;;;4.28;2.28;;;3.50;92.90;;;;;;5094601;28;20036;-70
2020/12/30 00:28:45;;;;;;;4.43;2.38;;;3.40;92.90;;;;;;5094175;28;20394;-71
2020/12/30 00:31:10;;;;;;;4.30;2.50;;;3.30;93.00;;;;;;5093961;28;20453;-71
2020/12/30 00:33:37;;;;;;;5.15;2.75;;;3.30;93.00;;;;;;5094156;28;20104;-71
2020/12/30 00:36:03;;;;;;;5.65;2.58;;;3.30;93.00;;;;;;5093826;28;20067;-70
2020/12/30 00:38:28;;;;;;;4.40;2.13;;;3.20;93.00;;;;;;5093866;28;20074;-71
2020/12/30 00:40:54;;;;;;;4.32;2.25;;;3.20;93.00;;;;;;5093681;28;20097;-71
2020/12/30 00:43:20;;;;;;;4.35;2.40;;;3.20;93.00;;;;;;5093573;28;20051;-71
2020/12/30 00:45:45;;;;;;;4.30;2.35;;;3.10;93.00;;;;;;5093779;28;20028;-71
2020/12/30 00:48:11;;;;;;;4.75;2.33;;;3.00;93.10;;;;;;5093706;28;20062;-70
2020/12/30 00:50:37;;;;;;;4.63;2.40;;;3.10;93.10;;;;;;5093934;28;20032;-71
2020/12/30 00:53:02;;;;;;;4.82;2.22;;;2.90;93.10;;;;;;5093787;28;20507;-71
2020/12/30 00:55:28;;;;;;;3.85;2.00;;;2.90;93.10;;;;;;5093987;28;20043;-70
2020/12/30 00:57:54;;;;;;;4.53;2.22;;;2.80;93.10;;;;;;5093766;28;20074;-71
2020/12/30 01:00:19;;;;;;;4.13;2.22;;;2.80;93.20;;;;;;5093362;28;20039;-71
2020/12/30 01:02:45;;;;;;;4.43;2.30;;;2.80;93.20;;;;;;5093341;28;20044;-71
2020/12/30 01:05:11;;;;;;;5.93;2.67;;;2.80;93.20;;;;;;5093236;28;20052;-71
2020/12/30 01:07:36;;;;;;;3.70;2.30;;;2.70;93.10;;;;;;5093669;28;20044;-71
2020/12/30 01:10:04;;;;;;;5.50;2.50;;;2.70;93.20;;;;;;5093276;28;20028;-70
2020/12/30 01:12:30;;;;;;;4.32;2.20;;;2.70;93.20;;;;;;5075384;28;20036;-71
2020/12/30 01:14:55;;;;;;;4.50;2.10;;;2.60;93.20;;;;;;5092986;28;20052;-70
2020/12/30 01:17:25;;;;;;;3.72;1.88;;;2.60;93.20;;;;;;5093275;28;20043;-71
2020/12/30 01:19:50;;;;;;;6.68;2.70;;;2.60;93.20;;;;;;5073777;28;20434;-71
2020/12/30 01:22:16;;;;;;;4.60;2.40;;;2.50;93.20;;;;;;5093249;28;20132;-71
2020/12/30 01:24:41;;;;;;;2.85;1.50;;;2.50;93.20;;;;;;5093334;28;20078;-70
2020/12/30 01:27:07;;;;;;;3.88;2.10;;;2.50;93.30;;;;;;5093449;28;20475;-71
2020/12/30 01:29:33;;;;;;;3.38;1.88;;;2.50;93.30;;;;;;5093559;28;20407;-70
2020/12/30 01:31:58;;;;;;;3.85;2.00;;;2.40;93.30;;;;;;5093017;28;20036;-70
2020/12/30 01:34:24;;;;;;;3.53;1.83;;;2.40;93.30;;;;;;5093211;28;20044;-71
2020/12/30 01:36:52;;;;;;;4.18;2.22;;;2.40;93.30;;;;;;5093437;28;20500;-71
2020/12/30 01:39:18;;;;;;;5.40;2.17;;;2.40;93.30;;;;;;5092929;28;20040;-71
2020/12/30 01:41:44;;;;;;;3.33;1.83;;;2.40;93.40;;;;;;5092823;28;20059;-71
2020/12/30 01:44:09;;;;;;;3.67;2.00;;;2.40;93.40;;;;;;5092579;28;20036;-71
2020/12/30 01:46:39;;;;;;;3.92;2.13;;;2.40;93.30;;;;;;5093085;28;20036;-71
2020/12/30 01:49:11;;;;;;;5.00;2.63;;;2.40;93.30;;;;;;5073231;28;20375;-71
2020/12/30 01:51:39;;;;;;;4.15;2.08;;;2.40;93.30;;;;;;5092470;28;20470;-71
2020/12/30 01:54:06;;;;;;;4.80;2.13;;;2.50;93.20;;;;;;5092600;28;20048;-71
2020/12/30 01:56:34;;;;;;;4.57;2.00;;;2.50;93.20;;;;;;5073967;28;20048;-71
2020/12/30 01:59:05;;;;;;;4.38;2.40;;;2.50;93.10;;;;;;5092366;28;20052;-71
2020/12/30 02:01:31;;;;;;;4.43;2.33;;;2.50;93.10;;;;;;5092392;28;20044;-71
2020/12/30 02:03:58;;;;;;;5.28;2.30;;;2.50;93.10;;;;;;5092975;28;20435;-71
2020/12/30 02:06:25;;;;;;;5.25;2.72;;;2.50;93.10;;;;;;5093010;28;20044;-71
2020/12/30 02:08:52;;;;;;;4.93;2.55;;;2.50;93.10;;;;;;5092462;28;20044;-71
2020/12/30 02:11:22;;;;;;;5.22;2.60;;;2.60;93.10;;;;;;5092679;28;20043;-71
2020/12/30 02:13:47;;;;;;;5.90;3.13;;;2.50;93.10;;;;;;5092657;28;20040;-71
2020/12/30 02:16:13;;;;;;;5.65;3.00;;;2.50;93.10;;;;;;5092277;28;20040;-71
2020/12/30 02:18:39;;;;;;;6.15;2.72;;;2.50;93.00;;;;;;5074299;28;20066;-70
2020/12/30 02:21:05;;;;;;;5.35;2.65;;;2.60;93.00;;;;;;5074489;28;20048;-71
2020/12/30 02:23:33;;;;;;;4.57;2.50;;;2.50;93.00;;;;;;5074199;28;20036;-71
2020/12/30 02:25:59;;;;;;;6.18;2.85;;;2.50;93.00;;;;;;5092611;28;20040;-71
2020/12/30 02:28:25;;;;;;;5.55;2.80;;;2.50;92.90;;;;;;5092267;28;20434;-71
2020/12/30 02:30:53;;;;;;;7.03;2.85;;;2.50;93.00;;;;;;5091967;28;20089;-70
2020/12/30 02:33:19;;;;;;;6.05;3.20;;;2.60;93.00;;;;;;5092076;28;20055;-71
2020/12/30 02:35:45;;;;;;;4.97;2.45;;;2.50;92.90;;;;;;5073257;28;20053;-70
2020/12/30 02:38:11;;;;;;;5.50;2.85;;;2.50;93.00;;;;;;5092413;28;20200;-70
2020/12/30 02:40:37;;;;;;;3.17;1.85;;;2.60;93.00;;;;;;5091887;28;20092;-70
2020/12/30 02:43:02;;;;;;;4.68;2.55;;;2.50;93.00;;;;;;5093524;28;20043;-70
2020/12/30 02:45:28;;;;;;;5.65;2.78;;;2.60;93.00;;;;;;5096145;28;20039;-71
2020/12/30 02:47:54;;;;;;;4.97;2.58;;;2.60;92.90;;;;;;5095630;28;20048;-70
2020/12/30 02:50:19;;;;;;;5.72;2.30;;;2.60;93.00;;;;;;5095560;28;20050;-70
2020/12/30 02:52:45;;;;;;;5.07;2.53;;;2.50;92.90;;;;;;5095541;28;20040;-70
2020/12/30 02:55:11;;;;;;;5.40;2.35;;;2.60;92.90;;;;;;5075511;28;20072;-70
2020/12/30 02:57:36;;;;;;;5.10;2.50;;;2.60;92.90;;;;;;5095922;28;20066;-70
2020/12/30 03:00:02;;;;;;;6.25;2.90;;;2.50;93.00;;;;;;5095432;28;20036;-70
2020/12/30 03:02:28;;;;;;;4.32;1.92;;;2.50;93.00;;;;;;5095317;28;20051;-70
2020/12/30 03:04:54;;;;;;;4.05;2.03;;;2.50;93.00;;;;;;5095526;28;20439;-70
2020/12/30 03:07:20;;;;;;;5.57;2.55;;;2.40;93.00;;;;;;5095286;28;20442;-70
2020/12/30 03:09:47;;;;;;;5.63;2.80;;;2.50;93.10;;;;;;5095410;28;20086;-70
2020/12/30 03:12:12;;;;;;;4.55;2.40;;;2.50;93.10;;;;;;5095715;28;20119;-70
2020/12/30 03:14:38;;;;;;;5.38;2.47;;;2.50;93.00;;;;;;5095524;28;20067;-70
2020/12/30 03:17:04;;;;;;;4.47;2.22;;;2.50;93.00;;;;;;5095224;28;20123;-70
2020/12/30 03:19:29;;;;;;;4.18;2.00;;;2.50;93.10;;;;;;5095062;28;20070;-70
2020/12/30 03:21:56;;;;;;;3.97;2.15;;;2.50;93.00;;;;;;5095507;28;20039;-71
2020/12/30 03:24:22;;;;;;;4.00;1.98;;;2.50;93.10;;;;;;5095310;28;20479;-71
2020/12/30 03:26:49;;;;;;;4.80;2.03;;;2.40;93.00;;;;;;5095025;28;20043;-70
2020/12/30 03:29:15;;;;;;;4.00;2.10;;;2.40;93.10;;;;;;5095000;28;20032;-71
2020/12/30 03:31:40;;;;;;;4.47;2.20;;;2.40;93.10;;;;;;5095311;28;20036;-71
2020/12/30 03:34:08;;;;;;;4.07;2.08;;;2.50;93.10;;;;;;5095310;28;20394;-70
2020/12/30 03:36:34;;;;;;;4.15;1.95;;;2.60;93.10;;;;;;5075224;28;20041;-70
2020/12/30 03:39:00;;;;;;;3.55;1.80;;;2.50;93.10;;;;;;5094844;28;20044;-71
2020/12/30 03:41:26;;;;;;;3.85;1.90;;;2.40;93.10;;;;;;5094495;28;20065;-71
2020/12/30 03:43:51;;;;;;;4.13;2.00;;;2.40;93.10;;;;;;5075192;28;20053;-71
2020/12/30 03:46:17;;;;;;;3.17;1.70;;;2.40;93.10;;;;;;5094887;28;20111;-70
2020/12/30 03:48:43;;;;;;;3.83;1.75;;;2.50;93.10;;;;;;5094927;28;20033;-70
2020/12/30 03:51:08;;;;;;;3.42;1.65;;;2.50;93.10;;;;;;5076471;28;20055;-70
2020/12/30 03:53:34;;;;;;;3.47;1.70;;;2.60;93.20;;;;;;5094727;28;20043;-70
2020/12/30 03:56:00;;;;;;;3.08;1.58;;;2.50;93.10;;;;;;5094841;28;20063;-70
2020/12/30 03:58:25;;;;;;;4.72;1.83;;;2.50;93.10;;;;;;5094456;28;20105;-71
2020/12/30 04:00:51;;;;;;;3.28;1.65;;;2.60;93.10;;;;;;5094406;28;20074;-70
2020/12/30 04:03:17;;;;;;;3.67;1.77;;;2.60;93.10;;;;;;5094230;28;20040;-70
2020/12/30 04:05:42;;;;;;;3.88;1.88;;;2.60;93.00;;;;;;5094726;28;20063;-70
2020/12/30 04:08:08;;;;;;;3.65;1.67;;;2.60;93.00;;;;;;5094611;28;20032;-71
2020/12/30 04:10:34;;;;;;;3.38;1.90;;;2.60;93.00;;;;;;5094759;28;20043;-70
2020/12/30 04:12:59;;;;;;;2.95;1.75;;;2.60;93.00;;;;;;5094844;28;20473;-71
2020/12/30 04:15:25;;;;;;;3.90;1.80;;;2.60;93.00;;;;;;5094731;28;20042;-71
2020/12/30 04:17:51;;;;;;;3.10;1.73;;;2.60;93.00;;;;;;5094249;28;20405;-71
2020/12/30 04:20:16;;;;;;;3.92;1.90;;;2.60;93.00;;;;;;5094707;28;20131;-71
2020/12/30 04:22:42;;;;;;;3.72;1.73;;;2.60;93.00;;;;;;5094019;28;20035;-71
2020/12/30 04:25:08;;;;;;;3.10;1.60;;;2.50;93.00;;;;;;5094699;28;20024;-71
2020/12/30 04:27:34;;;;;;;3.80;1.88;;;2.50;93.10;;;;;;5094599;28;20118;-70
2020/12/30 04:29:59;;;;;;;4.35;1.90;;;2.50;93.10;;;;;;5094536;28;20044;-71
2020/12/30 04:32:25;;;;;;;2.75;1.60;;;2.50;93.10;;;;;;5094545;28;20039;-70
2020/12/30 04:34:51;;;;;;;2.75;1.60;;;2.50;93.10;;;;;;5094604;28;20036;-71
2020/12/30 04:37:16;;;;;;;3.22;1.80;;;2.50;93.10;;;;;;5075093;28;20080;-70
2020/12/30 04:39:42;;;;;;;2.83;1.58;;;2.40;93.10;;;;;;5094302;28;20070;-71
2020/12/30 04:42:09;;;;;;;4.22;2.17;;;2.50;93.10;;;;;;5075912;28;20089;-71
2020/12/30 04:44:41;;;;;;;3.85;2.03;;;2.50;93.10;;;;;;5093702;28;20126;-71
2020/12/30 04:47:08;;;;;;;3.28;1.50;;;2.50;93.10;;;;;;5073898;28;20044;-71
2020/12/30 04:49:33;;;;;;;3.30;1.67;;;2.50;93.10;;;;;;5094213;28;20036;-71
2020/12/30 04:51:59;;;;;;;4.07;1.83;;;2.50;93.10;;;;;;5093610;28;20044;-71
2020/12/30 04:54:26;;;;;;;2.85;1.45;;;2.50;93.10;;;;;;5093599;28;20098;-71
2020/12/30 04:56:58;;;;;;;4.65;2.08;;;2.60;93.10;;;;;;5093475;28;20078;-70
2020/12/30 04:59:42;;;;;;;3.72;2.00;;;2.60;93.10;;;;;;5093522;28;20123;-71
2020/12/30 05:02:10;;;;;;;2.55;1.60;;;2.60;93.10;;;;;;5075571;28;20130;-71
2020/12/30 05:04:37;;;;;;;4.38;2.10;;;2.60;93.00;;;;;;5093397;28;20379;-70
2020/12/30 05:07:18;;;;;;;4.22;2.20;;;2.70;93.00;;;;;;5093473;28;20059;-71
2020/12/30 05:09:44;;;;;;;3.67;1.67;;;2.60;93.00;;;;;;5093428;28;20090;-71
2020/12/30 05:12:19;;;;;;;4.13;1.95;;;2.70;93.00;;;;;;5093521;28;20067;-71
2020/12/30 05:14:45;;;;;;;4.15;2.00;;;2.70;93.00;;;;;;5094057;28;20040;-70
2020/12/30 05:17:12;;;;;;;3.97;2.05;;;2.70;92.90;;;;;;5093645;28;20043;-70
2020/12/30 05:19:39;;;;;;;3.40;1.88;;;2.70;93.00;;;;;;5093714;28;20063;-70
2020/12/30 05:22:05;;;;;;;4.80;2.40;;;2.70;93.00;;;;;;5093442;28;20055;-70
2020/12/30 05:24:32;;;;;;;4.85;2.60;;;2.70;92.90;;;;;;5093395;28;20036;-71
2020/12/30 05:26:58;;;;;;;4.72;2.50;;;2.80;92.90;;;;;;5093757;28;20040;-71
2020/12/30 05:29:26;;;;;;;6.30;2.88;;;2.80;92.90;;;;;;5093132;28;20447;-70
2020/12/30 05:31:53;;;;;;;5.55;2.60;;;2.90;92.90;;;;;;5093692;28;20042;-70
2020/12/30 05:34:20;;;;;;;5.43;2.55;;;2.80;92.90;;;;;;5093081;28;20132;-70
2020/12/30 05:36:48;;;;;;;5.15;2.65;;;2.80;92.90;;;;;;5093231;28;20048;-71
2020/12/30 05:39:29;;;;;;;4.90;2.50;;;2.90;92.90;;;;;;5093437;28;20040;-71
2020/12/30 05:42:18;;;;;;;5.03;2.35;;;2.90;92.90;;;;;;5093141;28;20044;-71
2020/12/30 05:44:48;;;;;;;6.88;3.20;;;2.90;92.90;;;;;;5093090;28;20119;-71
2020/12/30 05:47:18;;;;;;;4.57;2.58;;;2.90;92.90;;;;;;5093042;28;20123;-71
2020/12/30 05:49:45;;;;;;;4.75;2.47;;;2.90;92.90;;;;;;5092985;28;20035;-71
2020/12/30 05:52:24;;;;;;;4.80;2.35;;;2.90;92.90;;;;;;5074857;28;20048;-71
2020/12/30 05:55:07;;;;;;;4.63;2.42;;;3.00;92.90;;;;;;5092716;28;20036;-71
2020/12/30 05:57:34;;;;;;;5.05;2.38;;;3.00;92.90;;;;;;5093091;28;20462;-70
2020/12/30 06:00:13;;;;;;;4.05;2.15;;;3.00;92.90;;;;;;5071266;28;20403;-70
2020/12/30 06:02:41;;;;;;;4.20;2.33;;;2.90;92.90;;;;;;5092718;28;20059;-71
2020/12/30 06:05:10;;;;;;;5.57;2.63;;;2.90;92.90;;;;;;5092729;28;20032;-71
2020/12/30 06:07:37;;;;;;;4.80;2.50;;;2.90;92.90;;;;;;5093221;28;20177;-71
2020/12/30 06:10:05;;;;;;;5.07;2.50;;;2.90;92.90;;;;;;5093078;28;20044;-70
2020/12/30 06:12:42;;;;;;;4.55;2.45;;;2.80;92.90;;;;;;5093219;28;20032;-71
2020/12/30 06:15:12;;;;;;;4.82;2.42;;;2.80;92.90;;;;;;5092656;28;20040;-71
2020/12/30 06:17:51;;;;;;;4.43;2.25;;;2.90;93.00;;;;;;5091687;28;20036;-71
2020/12/30 06:20:21;;;;;;;4.75;2.38;;;2.90;93.00;;;;;;5092537;28;20119;-70
2020/12/30 06:22:55;;;;;;;3.33;2.00;;;2.90;93.00;;;;;;5092391;28;20072;-71
2020/12/30 06:25:24;;;;;;;3.47;2.03;;;3.10;93.10;;;;;;5092401;28;20039;-71
2020/12/30 06:27:50;;;;;;;4.28;1.90;;;2.90;93.00;;;;;;5092209;28;20090;-71
2020/12/30 06:30:16;;;;;;;3.95;1.95;;;3.00;93.00;;;;;;5092417;28;20036;-71
2020/12/30 06:32:42;;;;;;;2.92;1.65;;;3.00;93.00;;;;;;5092537;28;20066;-71
2020/12/30 06:35:10;;;;;;;3.85;1.80;;;3.10;93.10;;;;;;5092356;28;20458;-71
2020/12/30 06:37:37;;;;;;;4.38;2.15;;;3.00;93.00;;;;;;5092642;28;20071;-71
2020/12/30 06:40:20;;;;;;;4.60;2.10;;;3.00;93.30;;;;;;5092580;28;20040;-71
2020/12/30 06:42:47;;;;;;;5.45;2.35;;;3.10;93.00;;;;;;5092255;28;20045;-71
2020/12/30 06:45:14;;;;;;;3.45;2.08;;;3.10;93.00;;;;;;5092532;28;20045;-71
2020/12/30 06:48:00;;;;;;;3.85;2.08;;;3.20;93.00;;;;;;5092134;28;20047;-71
2020/12/30 06:50:27;;;;;;;3.92;2.13;;;3.10;93.00;;;;;;5091920;28;20110;-71
2020/12/30 06:52:53;;;;;;;4.70;2.40;;;3.10;92.90;;;;;;5092364;28;20048;-71
2020/12/30 06:55:45;;;;;;;3.85;2.00;;;3.10;92.90;;;;;;5092256;28;20062;-71
2020/12/30 06:58:48;;;;;;;3.88;1.90;;;3.10;92.90;;;;;;5091823;28;20040;-71
2020/12/30 07:01:16;;;;;;;4.53;2.05;;;3.20;92.90;;;;;;5091878;28;20048;-71
2020/12/30 07:03:42;;;;;;;3.53;2.00;;;3.20;92.90;;;;;;5091646;28;20486;-71
2020/12/30 07:06:21;;;;;;;3.85;1.92;;;3.20;93.00;;;;;;5092566;28;20409;-71
2020/12/30 07:08:46;;;;;;;4.85;2.55;;;3.20;92.90;;;;;;5091722;28;20033;-71
2020/12/30 07:11:12;;;;;;;4.13;2.03;;;3.20;92.90;;;;;;5091843;28;20040;-70
2020/12/30 07:13:39;;;;;;;4.45;2.28;;;3.20;92.90;;;;;;5091820;28;20040;-71
2020/12/30 07:16:19;;;;;;;4.63;2.45;;;3.20;92.90;;;;;;5092233;28;20105;-71
2020/12/30 07:18:48;;;;;;;4.20;2.00;;;3.20;93.00;;;;;;5091697;28;20048;-71
2020/12/30 07:21:15;;;;;;;6.20;2.65;;;3.30;93.00;;;;;;5091736;28;20044;-71
2020/12/30 07:23:42;;;;;;;3.83;2.17;;;3.20;92.90;;;;;;5091585;28;20040;-71
2020/12/30 07:26:20;;;;;;;4.13;2.13;;;3.20;92.90;;;;;;5092220;28;20063;-71
2020/12/30 07:28:47;;;;;;;4.55;2.33;;;3.20;92.90;;;;;;5093004;28;20081;-71
2020/12/30 07:31:14;;;;;;;6.07;2.40;;;3.30;93.00;;;;;;5075739;28;20046;-71
2020/12/30 07:33:41;;;;;;;4.63;2.30;;;3.30;93.00;;;;;;5095135;28;20044;-71
2020/12/30 07:36:08;;;;;;;4.70;2.20;;;3.30;93.00;;;;;;5077071;28;20083;-71
2020/12/30 07:38:36;;;;;;;4.55;2.55;;;3.30;93.00;;;;;;5094985;28;20040;-71
2020/12/30 07:41:08;;;;;;;3.72;1.95;;;3.30;93.00;;;;;;5077097;28;20074;-71
2020/12/30 07:43:45;;;;;;;3.85;2.05;;;3.40;92.90;;;;;;5076267;28;20052;-71
2020/12/30 07:46:14;;;;;;;3.47;1.80;;;3.40;92.90;;;;;;5095000;28;20048;-71
2020/12/30 07:48:40;;;;;;;3.05;1.70;;;3.40;92.90;;;;;;5094647;28;20040;-71
2020/12/30 07:51:08;;;;;;;3.38;1.80;;;3.50;92.90;;;;;;5095131;28;20377;-71
2020/12/30 07:53:34;;;;;;;3.67;1.85;;;3.40;92.90;;;;;;5094691;28;20104;-72
2020/12/30 07:56:00;;;;;;;3.17;1.65;;;3.50;92.90;;;;;;5094576;28;20036;-71
2020/12/30 07:58:26;;;;;;;4.35;2.08;;;3.50;92.90;;;;;;5094707;28;20113;-71
2020/12/30 08:00:52;;;;;;;4.88;2.47;;;3.50;92.90;;;;;;5094599;28;20060;-72
2020/12/30 08:03:21;;;;;;;4.05;2.05;;;3.50;92.90;;;;;;5094226;28;20139;-72
2020/12/30 08:05:49;;;;;;;3.50;1.70;;;3.50;92.90;;;;;;5094492;28;20040;-71
2020/12/30 08:08:17;;;;;;;3.28;1.75;;;3.50;92.90;;;;;;5094342;28;20035;-72
2020/12/30 08:10:48;;;;;;;3.25;1.90;;;3.50;92.90;;;;;;5094404;28;20036;-71
2020/12/30 08:13:15;;;;;;;4.40;2.20;;;3.60;92.90;;;;;;5094190;28;20055;-71
2020/12/30 08:15:55;;;;;;;3.47;1.83;;;3.60;92.90;;;;;;5094334;28;20063;-71
2020/12/30 08:18:21;;;;;;;4.03;2.00;;;3.60;92.90;;;;;;5076148;28;20043;-71
2020/12/30 08:20:46;;;;;;;4.35;2.33;;;3.60;92.90;;;;;;5094164;28;20040;-71
2020/12/30 08:23:18;;;;;;;3.45;1.90;;;3.60;92.90;;;;;;5094410;28;20441;-71
2020/12/30 08:25:48;;;;;;;4.43;2.00;;;3.60;92.90;;;;;;5094172;28;20044;-71
2020/12/30 08:28:13;;;;;;;4.32;2.13;;;3.60;92.90;;;;;;5094586;28;20084;-71
2020/12/30 08:30:41;;;;;;;5.40;2.25;;;3.70;92.90;;;;;;5094251;28;20123;-71
2020/12/30 08:33:10;;;;;;;3.75;1.98;;;3.70;92.90;;;;;;5093902;28;20398;-72
2020/12/30 08:35:43;;;;;;;3.65;1.80;;;3.70;92.90;;;;;;5093947;28;20040;-72
2020/12/30 08:38:17;;;;;;;4.97;2.30;;;3.80;92.90;;;;;;5094083;28;20071;-71
2020/12/30 08:40:49;;;;;;;3.88;2.20;;;3.70;92.90;;;;;;5093486;28;20089;-71
2020/12/30 08:43:26;;;;;;;4.70;2.47;;;3.80;92.90;;;;;;5094260;28;20044;-72
2020/12/30 08:46:20;;;;;;;4.55;2.13;;;3.80;92.90;;;;;;5094235;28;20038;-71
2020/12/30 08:48:51;;;;;;;3.50;2.05;;;3.80;92.90;;;;;;5080017;28;20066;-71
2020/12/30 08:51:29;;;;;;;4.53;2.33;;;3.80;92.80;;;;;;5094330;28;20036;-71
2020/12/30 08:53:55;;;;;;;5.43;2.45;;;3.80;92.90;;;;;;5093736;28;20494;-71
2020/12/30 08:56:22;;;;;;;4.90;2.80;;;3.80;92.80;;;;;;5094208;28;20090;-71
2020/12/30 08:58:53;;;;;;;4.78;2.50;;;3.90;92.90;;;;;;5093788;28;20098;-71
2020/12/30 09:01:21;;;;;;;6.60;3.22;;;3.90;92.90;;;;;;5094132;28;20097;-71
2020/12/30 09:03:46;;;;;;;6.47;3.50;;;3.90;92.90;;;;;;5094049;28;20048;-71
2020/12/30 09:06:25;;;;;;;5.10;2.80;;;3.90;92.80;;;;;;5094008;28;20105;-71
2020/12/30 09:08:50;;;;;;;7.70;3.10;;;3.90;92.80;;;;;;5093417;28;20119;-71
2020/12/30 09:11:17;;;;;;;6.07;2.95;;;3.90;92.80;;;;;;5093497;28;20067;-72
2020/12/30 09:13:43;;;;;;;5.35;2.80;;;4.00;92.90;;;;;;5093921;28;20086;-71
2020/12/30 09:16:10;;;;;;;6.18;2.90;;;4.00;92.90;;;;;;5093277;28;20052;-71
2020/12/30 09:18:36;;;;;;;6.20;3.22;;;4.00;92.80;;;;;;5093417;28;20067;-71
2020/12/30 09:21:02;;;;;;;7.00;3.67;;;4.00;92.80;;;;;;5093268;28;20048;-71
2020/12/30 09:23:28;;;;;;;6.18;3.38;;;4.10;92.90;;;;;;5093526;28;20052;-71
2020/12/30 09:25:56;;;;;;;6.15;3.50;;;4.10;92.80;;;;;;5093247;28;20447;-71
2020/12/30 09:28:24;;;;;;;6.55;3.13;;;4.10;92.80;;;;;;5073645;28;20044;-71
2020/12/30 09:30:52;;;;;;;6.38;3.58;;;4.10;92.80;;;;;;5093145;28;20402;-72
2020/12/30 09:33:21;;;;;;;5.60;3.33;;;4.30;92.80;;;;;;5093445;28;20097;-71
2020/12/30 09:35:47;;;;;;;5.90;3.55;;;4.20;92.80;;;;;;5093423;28;20039;-71
2020/12/30 09:38:19;;;;;;;5.40;2.80;;;4.20;92.80;;;;;;5093127;28;20097;-71
2020/12/30 09:40:46;;;;;;;;;;;4.20;92.80;;;;;;5094066;28;20054;-71
2020/12/30 09:43:17;;;;;;;3.83;2.25;;;4.30;92.80;;;;;;5092972;28;19976;-71
2020/12/30 09:45:44;;;;;;;4.10;2.40;;;4.30;92.70;;;;;;5092849;28;20028;-71
2020/12/30 09:48:14;;;;;;;3.70;2.00;;;4.30;92.80;;;;;;5093627;28;20431;-71
2020/12/30 09:50:43;;;;;;;4.90;2.38;;;4.30;92.80;;;;;;5090703;28;20048;-72
2020/12/30 09:53:09;;;;;;;4.55;2.47;;;4.30;92.80;;;;;;5093241;28;20044;-72
2020/12/30 09:55:35;;;;;;;4.20;2.17;;;4.40;92.80;;;;;;5093048;28;20055;-72
2020/12/30 09:58:01;;;;;;;5.05;2.40;;;4.40;92.80;;;;;;5093007;28;20040;-72
2020/12/30 10:00:26;;;;;;;4.13;2.30;;;4.40;92.80;;;;;;5093243;28;20405;-71
2020/12/30 10:02:53;;;;;;;6.68;3.13;;;4.40;92.80;;;;;;5092733;28;20126;-73
2020/12/30 10:05:18;;;;;;;6.25;3.28;;;4.50;92.80;;;;;;5093183;28;20127;-73
2020/12/30 10:07:44;;;;;;;6.32;3.40;;;4.50;92.80;;;;;;5092670;28;20570;-72
2020/12/30 10:10:10;;;;;;;6.18;2.80;;;4.50;92.80;;;;;;5092643;28;20039;-73
2020/12/30 10:12:38;;;;;;;5.65;2.60;;;4.50;92.70;;;;;;5092538;28;20513;-75
2020/12/30 10:15:06;;;;;;;5.05;2.70;;;4.50;92.80;;;;;;5092991;28;20370;-72
2020/12/30 10:17:32;;;;;;;5.60;2.90;;;4.50;92.80;;;;;;5093000;28;20032;-72
2020/12/30 10:19:58;;;;;;;6.75;3.88;;;4.50;92.80;;;;;;5093190;28;20378;-72
2020/12/30 10:22:23;;;;;;;6.07;3.38;;;4.70;92.80;;;;;;5092568;28;20123;-73
2020/12/30 10:24:49;;;;;;;5.65;3.22;;;4.60;92.70;;;;;;5092552;28;20028;-72
2020/12/30 10:27:16;;;;;;;6.22;3.30;;;4.70;92.70;;;;;;5092565;28;20093;-71
2020/12/30 10:29:42;;;;;;;5.30;3.08;;;4.70;92.70;;;;;;5092604;28;20040;-71
2020/12/30 10:32:07;;;;;;;6.47;2.97;;;4.70;92.70;;;;;;5074500;28;20089;-71
2020/12/30 10:34:35;;;;;;;5.82;3.17;;;4.70;92.70;;;;;;5092473;28;20039;-71
2020/12/30 10:37:01;;;;;;;6.47;3.00;;;4.80;92.70;;;;;;5092988;28;20493;-72
2020/12/30 10:39:27;;;;;;;6.47;3.38;;;4.70;92.70;;;;;;5092517;28;20040;-71
2020/12/30 10:41:54;;;;;;;6.05;3.22;;;4.80;92.70;;;;;;5092425;28;20493;-72
2020/12/30 10:44:20;;;;;;;6.22;3.67;;;4.80;92.70;;;;;;5074990;28;20367;-72
2020/12/30 10:46:46;;;;;;;7.22;3.88;;;4.70;92.70;;;;;;5092263;28;20043;-71
2020/12/30 10:49:11;;;;;;;8.13;4.35;;;4.70;92.70;;;;;;5092141;28;20036;-71
2020/12/30 10:51:37;;;;;;;5.60;3.30;;;4.90;92.80;;;;;;5092066;28;20039;-72
2020/12/30 10:54:03;;;;;;;8.52;3.88;;;4.70;92.70;;;;;;5092125;28;20397;-71
2020/12/30 10:56:28;;;;;;;6.00;3.33;;;4.70;92.70;;;;;;5092093;28;20086;-71
2020/12/30 10:58:54;;;;;;;8.23;3.97;;;4.70;92.80;;;;;;5092219;28;20489;-71
2020/12/30 11:01:20;;;;;;;6.80;3.88;;;4.70;92.80;;;;;;5092101;28;20035;-71
2020/12/30 11:03:45;;;;;;;7.80;3.97;;;4.80;92.80;;;;;;5093372;28;20100;-71
2020/12/30 11:06:11;;;;;;;5.22;3.25;;;4.70;92.80;;;;;;5095985;28;20451;-71
2020/12/30 11:08:37;;;;;;;5.63;3.40;;;4.80;92.80;;;;;;5077015;28;20119;-71
2020/12/30 11:11:05;;;;;;;5.55;3.20;;;4.90;92.80;;;;;;5095725;28;20081;-71
2020/12/30 11:13:31;;;;;;;5.38;2.92;;;4.90;92.70;;;;;;5095357;28;20062;-71
2020/12/30 11:15:57;;;;;;;4.95;2.85;;;5.00;92.70;;;;;;5076853;28;20054;-71
2020/12/30 11:18:22;;;;;;;4.60;2.60;;;5.00;92.80;;;;;;5095564;28;20043;-71
2020/12/30 11:20:49;;;;;;;4.90;2.55;;;5.20;92.80;;;;;;5095642;28;20508;-71
2020/12/30 11:23:16;;;;;;;5.30;2.72;;;5.30;92.70;;;;;;5095695;28;20048;-72
2020/12/30 11:25:43;;;;;;;5.53;3.13;;;5.30;92.60;;;;;;5095334;28;20480;-71
2020/12/30 11:28:15;;;;;;;7.00;3.42;;;5.40;92.50;;;;;;5095544;28;20091;-71
2020/12/30 11:30:41;;;;;;;7.78;3.08;;;5.40;92.50;;;;;;5095131;28;20048;-71
2020/12/30 11:33:07;;;;;;;5.65;3.22;;;5.30;92.50;;;;;;5095185;28;20036;-72
2020/12/30 11:35:33;;;;;;;5.05;2.58;;;5.30;92.50;;;;;;5095148;28;20063;-72
2020/12/30 11:37:59;;;;;;;4.82;3.00;;;5.30;92.60;;;;;;5095058;28;20482;-72
2020/12/30 11:40:26;;;;;;;6.43;3.53;;;5.30;92.60;;;;;;5060225;28;20048;-72
2020/12/30 11:42:53;;;;;;;5.57;3.35;;;5.30;92.60;;;;;;5094915;28;20039;-72
2020/12/30 11:45:19;;;;;;;6.57;3.80;;;5.30;92.60;;;;;;5094885;28;20548;-72
2020/12/30 11:47:44;;;;;;;8.10;4.30;;;5.30;92.60;;;;;;5094900;28;20127;-72
2020/12/30 11:50:10;;;;;;;6.57;3.65;;;5.30;92.60;;;;;;5095187;28;20069;-72
2020/12/30 11:52:36;;;;;;;6.72;3.38;;;5.40;92.60;;;;;;5075305;28;20041;-73
2020/12/30 11:55:02;;;;;;;5.72;3.40;;;5.40;92.60;;;;;;5094935;28;20093;-72
2020/12/30 11:57:28;;;;;;;7.30;3.67;;;5.40;92.60;;;;;;5076623;28;20040;-72
2020/12/30 11:59:54;;;;;;;6.65;3.17;;;5.40;92.60;;;;;;5094744;28;20036;-72
2020/12/30 12:02:19;;;;;;;5.00;2.90;;;5.40;92.60;;;;;;5094749;28;20077;-72
2020/12/30 12:04:45;;;;;;;5.43;2.80;;;5.30;92.60;;;;;;5094598;28;20059;-72
2020/12/30 12:07:11;;;;;;;5.03;2.75;;;5.40;92.60;;;;;;5094858;28;20043;-72
2020/12/30 12:09:36;;;;;;;4.60;2.50;;;5.40;92.60;;;;;;5094384;28;20123;-72
2020/12/30 12:12:02;;;;;;;4.15;2.20;;;5.50;92.60;;;;;;5094628;28;20482;-72
2020/12/30 12:14:28;;;;;;;5.28;2.70;;;5.50;92.70;;;;;;5093587;28;20040;-72
2020/12/30 12:16:56;;;;;;;4.65;2.58;;;5.50;92.60;;;;;;5093710;28;20040;-72
2020/12/30 12:19:24;;;;;;;5.50;2.50;;;5.60;92.60;;;;;;5094556;28;20513;-73
2020/12/30 12:21:50;;;;;;;4.70;2.10;;;5.60;92.60;;;;;;5094683;28;20089;-72
2020/12/30 12:24:17;;;;;;;3.35;2.00;;;5.70;92.60;;;;;;5094606;28;20507;-71
2020/12/30 12:26:43;;;;;;;5.93;2.60;;;5.80;92.50;;;;;;5094563;28;20032;-72
2020/12/30 12:29:43;;;;;;;3.97;2.47;;;5.80;92.40;;;;;;5094021;28;20482;-71
2020/12/30 12:32:11;;;;;;;4.18;2.30;;;5.90;92.40;;;;;;5094136;28;20044;-71
2020/12/30 12:34:38;;;;;;;4.43;2.25;;;5.90;92.40;;;;;;5094781;28;20129;-71
2020/12/30 12:37:05;;;;;;;4.65;2.40;;;6.00;92.40;;;;;;5094472;28;20548;-71
2020/12/30 12:39:33;;;;;;;4.35;2.42;;;6.00;92.40;;;;;;5094439;28;20050;-72
2020/12/30 12:41:58;;;;;;;4.18;2.47;;;6.00;92.40;;;;;;5094336;28;20067;-71
2020/12/30 12:44:24;;;;;;;4.03;2.35;;;6.00;92.40;;;;;;5074237;28;20083;-71
2020/12/30 12:46:50;;;;;;;6.30;2.90;;;6.00;92.30;;;;;;5094307;28;20032;-73
2020/12/30 12:49:17;;;;;;;3.22;2.03;;;6.10;92.30;;;;;;5093971;28;20371;-71
2020/12/30 12:51:47;;;;;;;5.15;2.47;;;6.00;92.30;;;;;;5093829;28;20055;-74
2020/12/30 12:54:13;;;;;;;5.40;2.50;;;6.10;92.40;;;;;;5093688;28;20040;-75
2020/12/30 12:56:39;;;;;;;3.90;2.10;;;6.00;92.30;;;;;;5093823;28;20036;-74
2020/12/30 12:59:05;;;;;;;6.07;2.60;;;6.00;92.40;;;;;;5093569;28;20119;-72
2020/12/30 13:01:30;;;;;;;3.83;2.15;;;6.10;92.40;;;;;;5093408;28;20497;-71